Aeroporto :
LOGIN :

Iscrizione | Disclaimer

   EN    FR    IT 

 










Sommario :    VFR   VFR Marginale   IFR   IFR Intensivo   IFR Molto Intensivo
Visibilità : 
Base nubi : 
>= 8 km
>= 3000ft
5 / 8 km
1000 / 3000 ft
1500m / 5 km
500 / 1000 ft
800 / 1500m
200 / 500 ft
< 800m
< 200 ft
Simboli :   Temporali  Nebbia  Neve Forte  Precipitazioni Forti  Vento > 20 kt
SIGMETs :   Varie  Temporali  Ghiacco  Turbolenza  Onda orograficha  Ceneri Vulcaniche






- Altitudine del aeroporto : 117 ft
- Codice IATA : NWI


EGSH - Norwich

ULTIMO METAR :
  • 180150Z AUTO 01007KT 4000 RA OVC002/// 14/14 Q1015

METARs OBSOLETI :
  • 180120Z AUTO 01006KT 4500 BR OVC002/// 14/14 Q1015
  • 180050Z AUTO 35008KT 4100 BR OVC002/// 15/14 Q1015
  • 180020Z AUTO 36007KT 9000 OVC002/// 14/14 Q1015
  • 172350Z AUTO 35005KT 320V020 6000 OVC002/// 15/14 Q1015
  • 172320Z AUTO 01005KT 350V050 5000 BR OVC002/// 15/14 Q1015 RERA

TAF TAF EGSH
Valido dal 18 a 00 ore il 18 a 09 ore UTC


172253Z 1800/1809 03005KT 9999 BKN007
TEMPO 1800/1809 7000 SHRA BKN004
PROB30
TEMPO 1800/1809 3000 +SHRA BR BKN001
ATIS : +44 1603 420 640



MetMap, La meteo Aeronautica in un colpo d'occhio ! - Copyright ORBIFLY Dicembre 2007 - Disclaimer

ORBIFLY MET'MAP TEAM :

Programmazione e sviluppo : Alexandra Zaïnal
Concezione : Baudouin d'Aumeries
Aiuto per la programmazione : Marc-Olivier Méhu
Supporto tecnico e logistico : Manuel Goepfert
Aiuto per la traduzione : Arnaldo La Scala

Contatto : metmap@orbifly.com




FONTI E CREDITI :

   NOAA